sensor_id;sensor_type;location;lat;lon;timestamp;pressure;altitude;pressure_sealevel;temperature;humidity
48364;BME280;34170;54.364;18.582;2023-04-25T00:02:25;98854.63;;;13.27;100.00
48364;BME280;34170;54.364;18.582;2023-04-25T00:04:53;98856.34;;;13.35;100.00
48364;BME280;34170;54.364;18.582;2023-04-25T00:07:21;98846.41;;;13.14;100.00
48364;BME280;34170;54.364;18.582;2023-04-25T00:09:49;98857.06;;;13.22;100.00
48364;BME280;34170;54.364;18.582;2023-04-25T00:12:17;98843.91;;;13.12;100.00
48364;BME280;34170;54.364;18.582;2023-04-25T00:14:45;98850.59;;;13.16;100.00
48364;BME280;34170;54.364;18.582;2023-04-25T00:17:13;98853.25;;;13.10;100.00
48364;BME280;34170;54.364;18.582;2023-04-25T00:19:40;98848.53;;;13.19;100.00
48364;BME280;34170;54.364;18.582;2023-04-25T00:22:08;98844.16;;;13.18;100.00
48364;BME280;34170;54.364;18.582;2023-04-25T00:24:35;98846.78;;;13.04;100.00
48364;BME280;34170;54.364;18.582;2023-04-25T00:27:02;98841.81;;;13.08;100.00
48364;BME280;34170;54.364;18.582;2023-04-25T00:29:30;98845.00;;;13.18;100.00
48364;BME280;34170;54.364;18.582;2023-04-25T00:31:57;98840.16;;;13.35;100.00
48364;BME280;34170;54.364;18.582;2023-04-25T00:34:25;98832.47;;;13.39;100.00
48364;BME280;34170;54.364;18.582;2023-04-25T00:36:53;98844.28;;;13.31;100.00
48364;BME280;34170;54.364;18.582;2023-04-25T00:39:20;98841.31;;;13.26;100.00
48364;BME280;34170;54.364;18.582;2023-04-25T00:41:48;98845.97;;;13.39;100.00
48364;BME280;34170;54.364;18.582;2023-04-25T00:44:16;98848.06;;;13.37;100.00
48364;BME280;34170;54.364;18.582;2023-04-25T00:46:44;98848.09;;;13.43;100.00
48364;BME280;34170;54.364;18.582;2023-04-25T00:49:11;98846.03;;;13.52;100.00
48364;BME280;34170;54.364;18.582;2023-04-25T00:51:43;98849.34;;;13.47;100.00
48364;BME280;34170;54.364;18.582;2023-04-25T00:54:14;98852.31;;;13.52;100.00
48364;BME280;34170;54.364;18.582;2023-04-25T00:56:43;98854.56;;;13.49;100.00
48364;BME280;34170;54.364;18.582;2023-04-25T00:59:15;98849.34;;;13.47;100.00
48364;BME280;34170;54.364;18.582;2023-04-25T01:01:43;98859.34;;;13.53;100.00
48364;BME280;34170;54.364;18.582;2023-04-25T01:04:11;98852.50;;;13.51;100.00
48364;BME280;34170;54.364;18.582;2023-04-25T01:06:40;98853.31;;;13.51;100.00
48364;BME280;34170;54.364;18.582;2023-04-25T01:09:08;98858.91;;;13.50;100.00
48364;BME280;34170;54.364;18.582;2023-04-25T01:11:35;98850.38;;;13.46;100.00
48364;BME280;34170;54.364;18.582;2023-04-25T01:14:03;98850.22;;;13.54;100.00
48364;BME280;34170;54.364;18.582;2023-04-25T01:16:30;98855.97;;;13.45;100.00
48364;BME280;34170;54.364;18.582;2023-04-25T01:18:59;98855.00;;;13.52;100.00
48364;BME280;34170;54.364;18.582;2023-04-25T01:21:26;98845.84;;;13.47;100.00
48364;BME280;34170;54.364;18.582;2023-04-25T01:23:55;98851.44;;;13.45;100.00
48364;BME280;34170;54.364;18.582;2023-04-25T01:26:23;98861.63;;;13.50;100.00
48364;BME280;34170;54.364;18.582;2023-04-25T01:28:52;98852.31;;;13.52;100.00
48364;BME280;34170;54.364;18.582;2023-04-25T01:31:19;98859.53;;;13.52;100.00
48364;BME280;34170;54.364;18.582;2023-04-25T01:33:47;98860.47;;;13.31;100.00
48364;BME280;34170;54.364;18.582;2023-04-25T01:36:15;98858.41;;;13.33;100.00
48364;BME280;34170;54.364;18.582;2023-04-25T01:38:43;98859.16;;;13.27;100.00
48364;BME280;34170;54.364;18.582;2023-04-25T01:41:11;98852.88;;;13.20;100.00
48364;BME280;34170;54.364;18.582;2023-04-25T01:43:38;98854.28;;;13.37;100.00
48364;BME280;34170;54.364;18.582;2023-04-25T01:46:06;98857.22;;;13.42;100.00
48364;BME280;34170;54.364;18.582;2023-04-25T01:48:34;98870.56;;;13.50;100.00
48364;BME280;34170;54.364;18.582;2023-04-25T01:51:01;98864.31;;;13.50;100.00
48364;BME280;34170;54.364;18.582;2023-04-25T01:53:29;98869.09;;;13.48;100.00
48364;BME280;34170;54.364;18.582;2023-04-25T01:55:57;98861.81;;;13.48;100.00
48364;BME280;34170;54.364;18.582;2023-04-25T01:58:29;98865.31;;;13.42;100.00
48364;BME280;34170;54.364;18.582;2023-04-25T02:01:16;98872.16;;;13.38;100.00
48364;BME280;34170;54.364;18.582;2023-04-25T02:03:52;98869.47;;;13.38;100.00
48364;BME280;34170;54.364;18.582;2023-04-25T02:06:29;98866.13;;;13.36;100.00
48364;BME280;34170;54.364;18.582;2023-04-25T02:08:58;98863.88;;;13.40;100.00
48364;BME280;34170;54.364;18.582;2023-04-25T02:11:25;98871.72;;;13.34;100.00
48364;BME280;34170;54.364;18.582;2023-04-25T02:14:11;98867.69;;;13.30;100.00
48364;BME280;34170;54.364;18.582;2023-04-25T02:16:58;98875.34;;;13.27;100.00
48364;BME280;34170;54.364;18.582;2023-04-25T02:19:26;98873.84;;;13.18;100.00
48364;BME280;34170;54.364;18.582;2023-04-25T02:21:54;98876.16;;;13.21;100.00
48364;BME280;34170;54.364;18.582;2023-04-25T02:24:22;98880.28;;;13.16;100.00
48364;BME280;34170;54.364;18.582;2023-04-25T02:26:49;98874.69;;;13.18;100.00
48364;BME280;34170;54.364;18.582;2023-04-25T02:29:17;98875.72;;;13.17;100.00
48364;BME280;34170;54.364;18.582;2023-04-25T02:31:44;98877.97;;;13.13;100.00
48364;BME280;34170;54.364;18.582;2023-04-25T02:34:12;98874.88;;;13.16;100.00
48364;BME280;34170;54.364;18.582;2023-04-25T02:36:39;98875.31;;;13.20;100.00
48364;BME280;34170;54.364;18.582;2023-04-25T02:39:07;98875.22;;;13.07;100.00
48364;BME280;34170;54.364;18.582;2023-04-25T02:41:34;98879.88;;;13.20;100.00
48364;BME280;34170;54.364;18.582;2023-04-25T02:44:02;98873.69;;;13.26;100.00
48364;BME280;34170;54.364;18.582;2023-04-25T02:46:29;98872.75;;;13.12;100.00
48364;BME280;34170;54.364;18.582;2023-04-25T02:49:06;98866.28;;;13.06;100.00
48364;BME280;34170;54.364;18.582;2023-04-25T02:51:34;98870.94;;;12.91;100.00
48364;BME280;34170;54.364;18.582;2023-04-25T02:54:02;98873.16;;;13.09;100.00
48364;BME280;34170;54.364;18.582;2023-04-25T02:56:33;98877.66;;;13.02;100.00
48364;BME280;34170;54.364;18.582;2023-04-25T02:59:01;98873.50;;;12.99;100.00
48364;BME280;34170;54.364;18.582;2023-04-25T03:01:29;98876.44;;;13.04;100.00
48364;BME280;34170;54.364;18.582;2023-04-25T03:03:56;98862.00;;;12.90;100.00
48364;BME280;34170;54.364;18.582;2023-04-25T03:06:24;98874.97;;;13.02;100.00
48364;BME280;34170;54.364;18.582;2023-04-25T03:08:52;98873.81;;;12.89;100.00
48364;BME280;34170;54.364;18.582;2023-04-25T03:11:19;98879.44;;;12.88;100.00
48364;BME280;34170;54.364;18.582;2023-04-25T03:13:47;98869.78;;;12.78;100.00
48364;BME280;34170;54.364;18.582;2023-04-25T03:16:15;98881.28;;;12.87;100.00
48364;BME280;34170;54.364;18.582;2023-04-25T03:18:43;98871.97;;;12.90;100.00
48364;BME280;34170;54.364;18.582;2023-04-25T03:21:10;98869.22;;;12.83;100.00
48364;BME280;34170;54.364;18.582;2023-04-25T03:23:38;98865.53;;;12.91;100.00
48364;BME280;34170;54.364;18.582;2023-04-25T03:26:07;98872.06;;;13.03;100.00
48364;BME280;34170;54.364;18.582;2023-04-25T03:28:34;98864.66;;;12.84;100.00
48364;BME280;34170;54.364;18.582;2023-04-25T03:31:02;98877.88;;;12.78;100.00
48364;BME280;34170;54.364;18.582;2023-04-25T03:33:29;98865.75;;;12.68;100.00
48364;BME280;34170;54.364;18.582;2023-04-25T03:35:57;98864.91;;;12.67;100.00
48364;BME280;34170;54.364;18.582;2023-04-25T03:38:25;98860.63;;;12.73;100.00
48364;BME280;34170;54.364;18.582;2023-04-25T03:40:52;98876.59;;;12.74;100.00
48364;BME280;34170;54.364;18.582;2023-04-25T03:43:24;98872.13;;;12.60;100.00
48364;BME280;34170;54.364;18.582;2023-04-25T03:45:57;98882.50;;;12.20;100.00
48364;BME280;34170;54.364;18.582;2023-04-25T03:48:26;98876.22;;;12.34;100.00
48364;BME280;34170;54.364;18.582;2023-04-25T03:50:54;98879.63;;;12.07;100.00
48364;BME280;34170;54.364;18.582;2023-04-25T03:53:22;98886.22;;;12.19;100.00
48364;BME280;34170;54.364;18.582;2023-04-25T03:56:08;98887.75;;;11.77;100.00
48364;BME280;34170;54.364;18.582;2023-04-25T03:58:39;98893.31;;;11.60;100.00
48364;BME280;34170;54.364;18.582;2023-04-25T04:01:07;98897.94;;;11.37;100.00
48364;BME280;34170;54.364;18.582;2023-04-25T04:03:37;98887.38;;;11.50;100.00
48364;BME280;34170;54.364;18.582;2023-04-25T04:06:07;98907.34;;;11.56;100.00
48364;BME280;34170;54.364;18.582;2023-04-25T04:08:38;98897.66;;;11.32;100.00
48364;BME280;34170;54.364;18.582;2023-04-25T04:11:08;98885.31;;;11.37;100.00
48364;BME280;34170;54.364;18.582;2023-04-25T04:13:36;98908.72;;;11.37;100.00
48364;BME280;34170;54.364;18.582;2023-04-25T04:16:04;98897.94;;;11.22;100.00
48364;BME280;34170;54.364;18.582;2023-04-25T04:18:32;98912.56;;;11.19;100.00
48364;BME280;34170;54.364;18.582;2023-04-25T04:21:01;98922.06;;;11.30;100.00
48364;BME280;34170;54.364;18.582;2023-04-25T04:23:31;98906.13;;;11.29;100.00
48364;BME280;34170;54.364;18.582;2023-04-25T04:25:59;98908.91;;;10.97;100.00
48364;BME280;34170;54.364;18.582;2023-04-25T04:28:45;98903.94;;;11.09;100.00
48364;BME280;34170;54.364;18.582;2023-04-25T04:31:35;98908.25;;;11.33;100.00
48364;BME280;34170;54.364;18.582;2023-04-25T04:34:03;98907.41;;;11.48;100.00
48364;BME280;34170;54.364;18.582;2023-04-25T04:36:32;98914.03;;;11.45;100.00
48364;BME280;34170;54.364;18.582;2023-04-25T04:39:00;98921.25;;;11.44;100.00
48364;BME280;34170;54.364;18.582;2023-04-25T04:41:43;98917.25;;;10.87;100.00
48364;BME280;34170;54.364;18.582;2023-04-25T04:44:38;98920.41;;;11.29;100.00
48364;BME280;34170;54.364;18.582;2023-04-25T04:47:42;98916.56;;;10.85;100.00
48364;BME280;34170;54.364;18.582;2023-04-25T04:50:28;98927.66;;;11.29;100.00
48364;BME280;34170;54.364;18.582;2023-04-25T04:53:19;98914.72;;;11.09;100.00
48364;BME280;34170;54.364;18.582;2023-04-25T04:56:19;98915.53;;;11.10;100.00
48364;BME280;34170;54.364;18.582;2023-04-25T04:59:11;98919.06;;;11.10;100.00
48364;BME280;34170;54.364;18.582;2023-04-25T05:02:01;98926.97;;;11.26;100.00
48364;BME280;34170;54.364;18.582;2023-04-25T05:04:56;98915.38;;;10.88;100.00
48364;BME280;34170;54.364;18.582;2023-04-25T05:07:46;98924.72;;;11.15;100.00
48364;BME280;34170;54.364;18.582;2023-04-25T05:10:39;98917.41;;;11.09;100.00
48364;BME280;34170;54.364;18.582;2023-04-25T05:13:35;98921.28;;;11.06;100.00
48364;BME280;34170;54.364;18.582;2023-04-25T05:16:29;98911.22;;;11.23;100.00
48364;BME280;34170;54.364;18.582;2023-04-25T05:19:25;98914.06;;;11.22;100.00
48364;BME280;34170;54.364;18.582;2023-04-25T05:22:25;98924.50;;;11.40;100.00
48364;BME280;34170;54.364;18.582;2023-04-25T05:25:19;98924.97;;;11.58;100.00
48364;BME280;34170;54.364;18.582;2023-04-25T05:28:05;98925.16;;;11.42;100.00
48364;BME280;34170;54.364;18.582;2023-04-25T05:31:10;98934.63;;;11.53;100.00
48364;BME280;34170;54.364;18.582;2023-04-25T05:33:46;98921.81;;;11.55;100.00
48364;BME280;34170;54.364;18.582;2023-04-25T05:36:14;98919.66;;;11.35;100.00
48364;BME280;34170;54.364;18.582;2023-04-25T05:38:42;98940.38;;;11.50;100.00
48364;BME280;34170;54.364;18.582;2023-04-25T05:41:21;98944.00;;;11.04;100.00
48364;BME280;34170;54.364;18.582;2023-04-25T05:43:59;98952.38;;;11.77;100.00
48364;BME280;34170;54.364;18.582;2023-04-25T05:46:39;98948.19;;;11.59;100.00
48364;BME280;34170;54.364;18.582;2023-04-25T05:49:25;98961.06;;;11.34;100.00
48364;BME280;34170;54.364;18.582;2023-04-25T05:51:52;98949.25;;;11.20;100.00
48364;BME280;34170;54.364;18.582;2023-04-25T05:55:16;98955.84;;;11.18;100.00
48364;BME280;34170;54.364;18.582;2023-04-25T05:57:44;98959.31;;;11.56;100.00
48364;BME280;34170;54.364;18.582;2023-04-25T06:00:14;98957.97;;;11.37;100.00
48364;BME280;34170;54.364;18.582;2023-04-25T06:02:44;98963.84;;;11.41;100.00
48364;BME280;34170;54.364;18.582;2023-04-25T06:05:14;98961.00;;;11.57;100.00
48364;BME280;34170;54.364;18.582;2023-04-25T06:07:41;98975.41;;;11.64;100.00
48364;BME280;34170;54.364;18.582;2023-04-25T06:10:09;98964.75;;;11.33;100.00
48364;BME280;34170;54.364;18.582;2023-04-25T06:12:37;98957.63;;;10.79;100.00
48364;BME280;34170;54.364;18.582;2023-04-25T06:15:06;98965.75;;;11.17;100.00
48364;BME280;34170;54.364;18.582;2023-04-25T06:17:53;98975.84;;;10.92;100.00
48364;BME280;34170;54.364;18.582;2023-04-25T06:20:21;98975.47;;;10.80;100.00
48364;BME280;34170;54.364;18.582;2023-04-25T06:22:52;98972.66;;;10.97;100.00
48364;BME280;34170;54.364;18.582;2023-04-25T06:25:23;98981.66;;;10.81;100.00
48364;BME280;34170;54.364;18.582;2023-04-25T06:27:51;98982.75;;;10.72;100.00
48364;BME280;34170;54.364;18.582;2023-04-25T06:30:18;98979.94;;;11.11;100.00
48364;BME280;34170;54.364;18.582;2023-04-25T06:32:52;98982.53;;;10.96;100.00
48364;BME280;34170;54.364;18.582;2023-04-25T06:35:20;98978.31;;;10.56;100.00
48364;BME280;34170;54.364;18.582;2023-04-25T06:37:48;98977.13;;;10.81;100.00
48364;BME280;34170;54.364;18.582;2023-04-25T06:40:19;98981.59;;;10.66;100.00
48364;BME280;34170;54.364;18.582;2023-04-25T06:42:46;98977.81;;;10.52;100.00
48364;BME280;34170;54.364;18.582;2023-04-25T06:45:32;98981.00;;;10.79;100.00
48364;BME280;34170;54.364;18.582;2023-04-25T06:48:00;98988.00;;;10.88;100.00
48364;BME280;34170;54.364;18.582;2023-04-25T06:50:28;98990.56;;;11.04;100.00
48364;BME280;34170;54.364;18.582;2023-04-25T06:52:55;98988.13;;;11.18;100.00
48364;BME280;34170;54.364;18.582;2023-04-25T06:55:23;98988.66;;;11.51;100.00
48364;BME280;34170;54.364;18.582;2023-04-25T06:58:22;98993.25;;;11.80;100.00
48364;BME280;34170;54.364;18.582;2023-04-25T07:01:03;98995.56;;;11.69;100.00
48364;BME280;34170;54.364;18.582;2023-04-25T07:03:31;98986.81;;;11.67;100.00
48364;BME280;34170;54.364;18.582;2023-04-25T07:06:03;98980.91;;;11.33;100.00
48364;BME280;34170;54.364;18.582;2023-04-25T07:08:31;98988.66;;;11.51;100.00
48364;BME280;34170;54.364;18.582;2023-04-25T07:10:59;98999.41;;;11.51;100.00
48364;BME280;34170;54.364;18.582;2023-04-25T07:13:26;98997.88;;;11.34;100.00
48364;BME280;34170;54.364;18.582;2023-04-25T07:15:54;98992.06;;;11.07;97.49
48364;BME280;34170;54.364;18.582;2023-04-25T07:18:23;99004.03;;;11.42;94.62
48364;BME280;34170;54.364;18.582;2023-04-25T07:20:51;99009.59;;;11.41;92.17
48364;BME280;34170;54.364;18.582;2023-04-25T07:23:19;99008.94;;;11.77;91.89
48364;BME280;34170;54.364;18.582;2023-04-25T07:25:47;99017.75;;;11.86;90.50
48364;BME280;34170;54.364;18.582;2023-04-25T07:28:19;99016.53;;;11.35;90.86
48364;BME280;34170;54.364;18.582;2023-04-25T07:30:47;99015.22;;;11.54;89.85
48364;BME280;34170;54.364;18.582;2023-04-25T07:33:14;99022.94;;;11.72;86.00
48364;BME280;34170;54.364;18.582;2023-04-25T07:35:42;99032.34;;;11.38;88.17
48364;BME280;34170;54.364;18.582;2023-04-25T07:38:10;99020.41;;;11.56;87.27
48364;BME280;34170;54.364;18.582;2023-04-25T07:40:38;99033.44;;;11.29;85.67
48364;BME280;34170;54.364;18.582;2023-04-25T07:43:08;99030.38;;;11.32;86.34
48364;BME280;34170;54.364;18.582;2023-04-25T07:45:43;99027.63;;;11.55;87.03
48364;BME280;34170;54.364;18.582;2023-04-25T07:48:16;99035.88;;;11.39;86.06
48364;BME280;34170;54.364;18.582;2023-04-25T07:50:45;99032.53;;;11.37;84.93
48364;BME280;34170;54.364;18.582;2023-04-25T07:53:13;99040.41;;;11.38;83.14
48364;BME280;34170;54.364;18.582;2023-04-25T07:56:22;99029.78;;;11.22;82.72
48364;BME280;34170;54.364;18.582;2023-04-25T07:58:59;99031.41;;;11.31;83.97
48364;BME280;34170;54.364;18.582;2023-04-25T08:01:27;99031.81;;;11.43;82.13
48364;BME280;34170;54.364;18.582;2023-04-25T08:03:58;99049.31;;;11.39;82.01
48364;BME280;34170;54.364;18.582;2023-04-25T08:06:48;99052.28;;;11.82;81.59
48364;BME280;34170;54.364;18.582;2023-04-25T08:09:21;99043.81;;;11.93;80.52
48364;BME280;34170;54.364;18.582;2023-04-25T08:11:48;99052.69;;;11.79;81.37
48364;BME280;34170;54.364;18.582;2023-04-25T08:14:20;99053.03;;;11.76;80.78
48364;BME280;34170;54.364;18.582;2023-04-25T08:16:48;99048.75;;;12.05;80.14
48364;BME280;34170;54.364;18.582;2023-04-25T08:19:16;99054.66;;;12.45;77.25
48364;BME280;34170;54.364;18.582;2023-04-25T08:21:45;99061.44;;;12.70;75.51
48364;BME280;34170;54.364;18.582;2023-04-25T08:24:17;99065.66;;;12.94;73.00
48364;BME280;34170;54.364;18.582;2023-04-25T08:26:44;99065.84;;;13.51;70.66
48364;BME280;34170;54.364;18.582;2023-04-25T08:29:15;99071.47;;;14.06;68.80
48364;BME280;34170;54.364;18.582;2023-04-25T08:31:43;99076.31;;;14.52;65.88
48364;BME280;34170;54.364;18.582;2023-04-25T08:34:12;99074.28;;;13.91;67.57
48364;BME280;34170;54.364;18.582;2023-04-25T08:36:47;99073.94;;;14.01;66.99
48364;BME280;34170;54.364;18.582;2023-04-25T08:39:27;99080.66;;;13.83;66.97
48364;BME280;34170;54.364;18.582;2023-04-25T08:42:14;99085.97;;;13.70;67.11
48364;BME280;34170;54.364;18.582;2023-04-25T08:44:42;99085.38;;;13.53;68.25
48364;BME280;34170;54.364;18.582;2023-04-25T08:47:09;99084.81;;;13.36;67.59
48364;BME280;34170;54.364;18.582;2023-04-25T08:49:45;99085.22;;;13.33;69.33
48364;BME280;34170;54.364;18.582;2023-04-25T08:52:15;99097.28;;;13.37;67.71
48364;BME280;34170;54.364;18.582;2023-04-25T08:54:48;99091.50;;;13.04;69.93
48364;BME280;34170;54.364;18.582;2023-04-25T08:57:19;99099.78;;;13.39;70.37
48364;BME280;34170;54.364;18.582;2023-04-25T08:59:48;99101.47;;;13.25;70.73
48364;BME280;34170;54.364;18.582;2023-04-25T09:02:17;99100.59;;;13.54;69.61
48364;BME280;34170;54.364;18.582;2023-04-25T09:04:49;99112.25;;;13.83;69.48
48364;BME280;34170;54.364;18.582;2023-04-25T09:07:17;99102.19;;;14.26;65.69
48364;BME280;34170;54.364;18.582;2023-04-25T09:09:48;99110.63;;;14.80;64.84
48364;BME280;34170;54.364;18.582;2023-04-25T09:12:18;99105.13;;;14.60;65.09
48364;BME280;34170;54.364;18.582;2023-04-25T09:15:06;99105.03;;;14.53;63.84
48364;BME280;34170;54.364;18.582;2023-04-25T09:18:03;99114.81;;;14.19;66.79
48364;BME280;34170;54.364;18.582;2023-04-25T09:20:41;99115.53;;;13.78;66.85
48364;BME280;34170;54.364;18.582;2023-04-25T09:23:28;99121.53;;;13.73;68.88
48364;BME280;34170;54.364;18.582;2023-04-25T09:25:55;99131.88;;;13.91;68.75
48364;BME280;34170;54.364;18.582;2023-04-25T09:28:24;99125.91;;;13.53;68.31
48364;BME280;34170;54.364;18.582;2023-04-25T09:30:57;99133.94;;;13.46;68.83
48364;BME280;34170;54.364;18.582;2023-04-25T09:33:36;99124.56;;;13.42;70.88
48364;BME280;34170;54.364;18.582;2023-04-25T09:36:09;99133.28;;;13.44;70.75
48364;BME280;34170;54.364;18.582;2023-04-25T09:38:55;99131.41;;;13.08;69.79
48364;BME280;34170;54.364;18.582;2023-04-25T09:41:37;99129.97;;;13.27;68.15
48364;BME280;34170;54.364;18.582;2023-04-25T09:44:05;99138.44;;;13.39;68.50
48364;BME280;34170;54.364;18.582;2023-04-25T09:46:36;99139.59;;;13.00;69.26
48364;BME280;34170;54.364;18.582;2023-04-25T09:49:07;99131.50;;;13.00;70.56
48364;BME280;34170;54.364;18.582;2023-04-25T09:51:58;99138.19;;;13.19;70.79
48364;BME280;34170;54.364;18.582;2023-04-25T09:54:47;99135.22;;;13.14;70.74
48364;BME280;34170;54.364;18.582;2023-04-25T09:57:23;99145.09;;;13.22;71.45
48364;BME280;34170;54.364;18.582;2023-04-25T09:59:53;99142.03;;;13.46;69.00
48364;BME280;34170;54.364;18.582;2023-04-25T10:02:23;99142.56;;;13.57;69.22
48364;BME280;34170;54.364;18.582;2023-04-25T10:04:56;99151.25;;;13.73;67.67
48364;BME280;34170;54.364;18.582;2023-04-25T10:07:30;99152.78;;;14.04;67.39
48364;BME280;34170;54.364;18.582;2023-04-25T10:10:02;99152.81;;;14.11;66.56
48364;BME280;34170;54.364;18.582;2023-04-25T10:12:47;99148.44;;;14.38;64.80
48364;BME280;34170;54.364;18.582;2023-04-25T10:15:15;99148.13;;;14.55;64.76
48364;BME280;34170;54.364;18.582;2023-04-25T10:17:43;99149.22;;;14.60;62.80
48364;BME280;34170;54.364;18.582;2023-04-25T10:20:11;99147.41;;;14.67;63.81
48364;BME280;34170;54.364;18.582;2023-04-25T10:22:42;99155.88;;;14.99;62.75
48364;BME280;34170;54.364;18.582;2023-04-25T10:25:12;99155.50;;;15.02;61.73
48364;BME280;34170;54.364;18.582;2023-04-25T10:27:40;99160.34;;;14.72;63.01
48364;BME280;34170;54.364;18.582;2023-04-25T10:30:13;99157.19;;;14.40;64.76
48364;BME280;34170;54.364;18.582;2023-04-25T10:32:43;99170.03;;;14.32;65.32
48364;BME280;34170;54.364;18.582;2023-04-25T10:38:10;99166.41;;;13.53;67.62
48364;BME280;34170;54.364;18.582;2023-04-25T10:40:38;99159.69;;;13.12;69.74
48364;BME280;34170;54.364;18.582;2023-04-25T10:46:02;99171.00;;;13.52;67.88
48364;BME280;34170;54.364;18.582;2023-04-25T10:48:51;99181.47;;;13.62;67.74
48364;BME280;34170;54.364;18.582;2023-04-25T10:51:20;99185.25;;;13.68;67.61
48364;BME280;34170;54.364;18.582;2023-04-25T10:54:08;99179.22;;;13.66;67.36
48364;BME280;34170;54.364;18.582;2023-04-25T10:59:17;99183.44;;;13.53;67.68
48364;BME280;34170;54.364;18.582;2023-04-25T11:01:49;99179.84;;;13.46;67.53
48364;BME280;34170;54.364;18.582;2023-04-25T11:04:31;99186.41;;;13.59;68.18
48364;BME280;34170;54.364;18.582;2023-04-25T11:09:34;99179.91;;;13.16;69.68
48364;BME280;34170;54.364;18.582;2023-04-25T11:12:02;99185.22;;;13.61;68.11
48364;BME280;34170;54.364;18.582;2023-04-25T11:14:30;99180.13;;;13.95;65.94
48364;BME280;34170;54.364;18.582;2023-04-25T11:16:58;99185.75;;;14.21;64.65
48364;BME280;34170;54.364;18.582;2023-04-25T11:19:27;99188.03;;;14.46;64.16
48364;BME280;34170;54.364;18.582;2023-04-25T11:22:00;99187.94;;;14.61;62.92
48364;BME280;34170;54.364;18.582;2023-04-25T11:24:33;99189.53;;;14.55;63.16
48364;BME280;34170;54.364;18.582;2023-04-25T11:27:06;99192.00;;;14.50;62.90
48364;BME280;34170;54.364;18.582;2023-04-25T11:29:34;99188.59;;;14.41;62.46
48364;BME280;34170;54.364;18.582;2023-04-25T11:32:02;99190.72;;;13.96;62.79
48364;BME280;34170;54.364;18.582;2023-04-25T11:34:31;99189.72;;;13.97;62.84
48364;BME280;34170;54.364;18.582;2023-04-25T11:37:01;99186.59;;;14.00;62.06
48364;BME280;34170;54.364;18.582;2023-04-25T11:39:29;99192.03;;;14.28;60.53
48364;BME280;34170;54.364;18.582;2023-04-25T11:41:57;99193.69;;;13.80;63.48
48364;BME280;34170;54.364;18.582;2023-04-25T11:44:27;99210.25;;;13.91;64.96
48364;BME280;34170;54.364;18.582;2023-04-25T11:46:55;99212.25;;;14.04;63.71
48364;BME280;34170;54.364;18.582;2023-04-25T11:49:22;99200.19;;;13.64;64.41
48364;BME280;34170;54.364;18.582;2023-04-25T11:51:52;99207.03;;;13.30;64.49
48364;BME280;34170;54.364;18.582;2023-04-25T11:54:19;99208.75;;;13.01;64.81
48364;BME280;34170;54.364;18.582;2023-04-25T11:56:46;99203.78;;;13.20;62.97
48364;BME280;34170;54.364;18.582;2023-04-25T11:59:14;99216.25;;;13.50;62.82
48364;BME280;34170;54.364;18.582;2023-04-25T12:01:49;99220.13;;;13.63;62.00
48364;BME280;34170;54.364;18.582;2023-04-25T12:04:23;99219.75;;;13.66;61.61
48364;BME280;34170;54.364;18.582;2023-04-25T12:06:53;99214.84;;;13.54;63.33
48364;BME280;34170;54.364;18.582;2023-04-25T12:09:28;99208.31;;;13.85;61.95
48364;BME280;34170;54.364;18.582;2023-04-25T12:11:57;99222.91;;;13.91;60.66
48364;BME280;34170;54.364;18.582;2023-04-25T12:14:27;99211.38;;;14.04;60.82
48364;BME280;34170;54.364;18.582;2023-04-25T12:17:02;99218.06;;;14.29;60.18
48364;BME280;34170;54.364;18.582;2023-04-25T12:19:35;99228.72;;;14.38;59.03
48364;BME280;34170;54.364;18.582;2023-04-25T12:22:19;99225.50;;;14.49;58.55
48364;BME280;34170;54.364;18.582;2023-04-25T12:24:47;99218.97;;;14.37;58.04
48364;BME280;34170;54.364;18.582;2023-04-25T12:27:16;99224.88;;;14.47;58.42
48364;BME280;34170;54.364;18.582;2023-04-25T12:29:51;99228.13;;;14.14;58.98
48364;BME280;34170;54.364;18.582;2023-04-25T12:32:18;99225.81;;;14.61;56.81
48364;BME280;34170;54.364;18.582;2023-04-25T12:34:46;99235.31;;;14.78;57.49
48364;BME280;34170;54.364;18.582;2023-04-25T12:37:14;99239.31;;;14.89;56.21
48364;BME280;34170;54.364;18.582;2023-04-25T12:39:41;99226.00;;;14.87;56.61
48364;BME280;34170;54.364;18.582;2023-04-25T12:42:09;99233.97;;;14.96;55.64
48364;BME280;34170;54.364;18.582;2023-04-25T12:44:39;99232.28;;;14.95;55.67
48364;BME280;34170;54.364;18.582;2023-04-25T12:47:07;99235.50;;;15.12;55.62
48364;BME280;34170;54.364;18.582;2023-04-25T12:49:35;99237.34;;;15.11;54.79
48364;BME280;34170;54.364;18.582;2023-04-25T12:52:02;99227.78;;;14.74;57.08
48364;BME280;34170;54.364;18.582;2023-04-25T12:54:29;99228.47;;;14.54;57.26
48364;BME280;34170;54.364;18.582;2023-04-25T12:56:57;99226.22;;;14.58;56.80
48364;BME280;34170;54.364;18.582;2023-04-25T12:59:25;99228.53;;;14.61;58.32
48364;BME280;34170;54.364;18.582;2023-04-25T13:01:52;99230.00;;;14.63;58.57
48364;BME280;34170;54.364;18.582;2023-04-25T13:04:20;99229.41;;;14.40;59.61
48364;BME280;34170;54.364;18.582;2023-04-25T13:06:48;99227.72;;;14.39;58.82
48364;BME280;34170;54.364;18.582;2023-04-25T13:09:16;99232.94;;;14.19;59.97
48364;BME280;34170;54.364;18.582;2023-04-25T13:11:44;99225.59;;;14.13;61.13
48364;BME280;34170;54.364;18.582;2023-04-25T13:14:12;99232.59;;;14.28;60.03
48364;BME280;34170;54.364;18.582;2023-04-25T13:16:39;99233.91;;;14.33;60.57
48364;BME280;34170;54.364;18.582;2023-04-25T13:19:06;99227.59;;;14.04;60.06
48364;BME280;34170;54.364;18.582;2023-04-25T13:21:38;99228.25;;;14.27;60.14
48364;BME280;34170;54.364;18.582;2023-04-25T13:24:06;99228.03;;;14.51;60.30